createdAt,value
2017-08-25T00:01:23.664Z,82.50
2017-08-25T00:03:49.914Z,82.23
2017-08-25T00:06:16.144Z,84.50
2017-08-25T00:08:42.423Z,82.67
2017-08-25T00:11:08.575Z,80.57
2017-08-25T00:13:34.881Z,82.97
2017-08-25T00:16:01.015Z,74.37
2017-08-25T00:18:27.385Z,80.27
2017-08-25T00:20:53.585Z,77.80
2017-08-25T00:23:25.919Z,76.07
2017-08-25T00:25:52.174Z,81.10
2017-08-25T00:28:18.431Z,77.13
2017-08-25T00:30:50.784Z,109.47
2017-08-25T00:33:23.366Z,89.27
2017-08-25T00:35:49.564Z,90.70
2017-08-25T00:38:15.724Z,72.20
2017-08-25T00:40:42.050Z,67.73
2017-08-25T00:43:08.290Z,68.30
2017-08-25T00:45:34.525Z,72.20
2017-08-25T00:48:00.775Z,70.53
2017-08-25T00:50:27.008Z,69.80
2017-08-25T00:52:53.282Z,67.67
2017-08-25T00:55:19.488Z,72.57
2017-08-25T00:57:46.793Z,74.73
2017-08-25T01:00:13.303Z,67.90
2017-08-25T01:02:40.014Z,68.57
2017-08-25T01:05:06.896Z,66.77
2017-08-25T01:07:39.072Z,72.00
2017-08-25T01:10:11.789Z,56.47
2017-08-25T01:12:38.153Z,71.33
2017-08-25T01:15:04.353Z,56.73
2017-08-25T01:17:30.925Z,77.00
2017-08-25T01:20:03.349Z,105.30
2017-08-25T01:22:30.876Z,82.60
2017-08-25T01:24:57.105Z,288.33
2017-08-25T01:27:23.269Z,842.10
2017-08-25T01:29:49.703Z,202.20
2017-08-25T01:32:15.899Z,256.07
2017-08-25T01:34:42.066Z,216.80
2017-08-25T01:37:08.542Z,135.93
2017-08-25T01:39:34.740Z,81.50
2017-08-25T01:42:00.877Z,106.13
2017-08-25T01:44:28.170Z,64.70
2017-08-25T01:47:00.364Z,264.97
2017-08-25T01:49:26.851Z,52.30
2017-08-25T01:51:53.039Z,64.93
2017-08-25T01:54:19.175Z,68.60
2017-08-25T01:56:45.623Z,92.20
2017-08-25T01:59:11.856Z,150.00
2017-08-25T02:01:38.068Z,69.17
2017-08-25T02:04:04.637Z,53.33
2017-08-25T02:06:30.851Z,52.97
2017-08-25T02:08:57.053Z,57.63
2017-08-25T02:11:23.534Z,56.07
2017-08-25T02:13:49.769Z,55.80
2017-08-25T02:16:15.958Z,56.73
2017-08-25T02:18:42.607Z,52.23
2017-08-25T02:21:08.821Z,57.23
2017-08-25T02:23:34.931Z,63.47
2017-08-25T02:26:01.393Z,67.90
2017-08-25T02:28:27.603Z,65.63
2017-08-25T02:30:53.749Z,63.53
2017-08-25T02:33:20.479Z,71.30
2017-08-25T02:35:46.710Z,65.77
2017-08-25T02:38:12.921Z,64.20
2017-08-25T02:40:39.450Z,60.13
2017-08-25T02:43:05.687Z,69.53
2017-08-25T02:45:32.887Z,73.93
2017-08-25T02:47:59.613Z,70.13
2017-08-25T02:50:25.879Z,66.13
2017-08-25T02:52:52.117Z,66.70
2017-08-25T02:55:18.679Z,71.63
2017-08-25T02:57:44.971Z,63.13
2017-08-25T03:00:11.196Z,62.30
2017-08-25T03:02:37.413Z,72.50
2017-08-25T03:05:03.586Z,61.33
2017-08-25T03:07:30.046Z,65.73
2017-08-25T03:09:56.279Z,76.67
2017-08-25T03:12:22.466Z,77.27
2017-08-25T03:14:48.621Z,82.37
2017-08-25T03:17:14.840Z,79.63
2017-08-25T03:19:41.298Z,72.27
2017-08-25T03:22:07.520Z,75.60
2017-08-25T03:24:33.773Z,62.53
2017-08-25T03:26:59.989Z,65.67
2017-08-25T03:29:26.181Z,65.33
2017-08-25T03:31:59.567Z,65.70
2017-08-25T03:34:25.749Z,60.33
2017-08-25T03:36:51.918Z,65.67
2017-08-25T03:39:18.075Z,64.23
2017-08-25T03:41:44.322Z,59.63
2017-08-25T03:44:10.806Z,55.30
2017-08-25T03:46:36.929Z,60.53
2017-08-25T03:49:03.085Z,53.57
2017-08-25T03:51:29.331Z,56.00
2017-08-25T03:53:55.634Z,55.87
2017-08-25T03:56:22.186Z,49.83
2017-08-25T03:58:48.281Z,47.70
2017-08-25T04:01:14.384Z,53.83
2017-08-25T04:03:40.628Z,50.90
2017-08-25T04:06:06.857Z,54.43
2017-08-25T04:08:33.337Z,53.40
2017-08-25T04:10:59.523Z,53.80
2017-08-25T04:13:25.646Z,51.57
2017-08-25T04:15:51.907Z,53.00
2017-08-25T04:18:18.121Z,45.30
2017-08-25T04:20:44.325Z,53.80
2017-08-25T04:23:10.844Z,53.30
2017-08-25T04:25:37.127Z,52.67
2017-08-25T04:28:03.359Z,53.07
2017-08-25T04:30:29.645Z,57.10
2017-08-25T04:32:55.872Z,50.33
2017-08-25T04:35:22.065Z,54.97
2017-08-25T04:37:48.688Z,49.83
2017-08-25T04:40:15.198Z,49.43
2017-08-25T04:42:41.744Z,49.07
2017-08-25T04:45:07.957Z,50.50
2017-08-25T04:47:34.212Z,49.77
2017-08-25T04:50:00.450Z,48.70
2017-08-25T04:52:26.555Z,48.87
2017-08-25T04:54:52.774Z,47.43
2017-08-25T04:57:18.992Z,46.63
2017-08-25T04:59:45.105Z,47.17
2017-08-25T05:02:11.273Z,46.77
2017-08-25T05:04:37.499Z,49.13
2017-08-25T05:07:03.722Z,43.00
2017-08-25T05:09:29.933Z,40.47
2017-08-25T05:11:56.073Z,37.53
2017-08-25T05:14:22.302Z,43.73
2017-08-25T05:16:48.516Z,39.77
2017-08-25T05:19:14.704Z,36.10
2017-08-25T05:21:40.879Z,40.77
2017-08-25T05:24:07.106Z,35.57
2017-08-25T05:26:33.243Z,38.50
2017-08-25T05:28:59.455Z,37.40
2017-08-25T05:31:25.823Z,38.33
2017-08-25T05:33:52.317Z,37.23
2017-08-25T05:36:18.421Z,42.03
2017-08-25T05:38:44.588Z,35.93
2017-08-25T05:41:10.804Z,33.73
2017-08-25T05:43:37.038Z,35.90
2017-08-25T05:46:03.291Z,36.73
2017-08-25T05:48:29.456Z,35.40
2017-08-25T05:50:55.625Z,35.83
2017-08-25T05:53:21.850Z,35.37
2017-08-25T05:55:48.228Z,35.77
2017-08-25T05:58:14.407Z,36.07
2017-08-25T06:00:40.879Z,33.83
2017-08-25T06:03:07.297Z,36.70
2017-08-25T06:05:33.479Z,39.80
2017-08-25T06:07:59.942Z,35.73
2017-08-25T06:10:26.141Z,34.83
2017-08-25T06:12:52.287Z,35.13
2017-08-25T06:15:18.562Z,36.80
2017-08-25T06:17:44.734Z,36.60
2017-08-25T06:20:10.951Z,34.93
2017-08-25T06:22:37.238Z,30.80
2017-08-25T06:25:03.388Z,31.60
2017-08-25T06:27:29.579Z,31.63
2017-08-25T06:29:55.819Z,34.20
2017-08-25T06:32:22.647Z,36.13
2017-08-25T06:34:48.934Z,37.33
2017-08-25T06:37:15.198Z,28.77
2017-08-25T06:39:41.429Z,25.83
2017-08-25T06:42:07.640Z,31.03
2017-08-25T06:44:34.689Z,27.90
2017-08-25T06:47:01.038Z,25.47
2017-08-25T06:49:27.317Z,24.20
2017-08-25T06:51:53.514Z,29.03
2017-08-25T06:54:19.792Z,36.10
2017-08-25T06:56:45.904Z,29.20
2017-08-25T06:59:12.698Z,26.40
2017-08-25T07:01:39.024Z,25.07
2017-08-25T07:04:05.242Z,22.37
2017-08-25T07:06:31.666Z,25.93
2017-08-25T07:08:58.024Z,21.90
2017-08-25T07:11:24.251Z,22.77
2017-08-25T07:13:51.417Z,25.10
2017-08-25T07:16:18.586Z,21.10
2017-08-25T07:18:44.748Z,25.90
2017-08-25T07:21:10.895Z,22.27
2017-08-25T07:23:37.249Z,26.23
2017-08-25T07:26:03.983Z,27.13
2017-08-25T07:28:30.193Z,27.07
2017-08-25T07:30:56.400Z,22.37
2017-08-25T07:33:22.522Z,20.43
2017-08-25T07:35:48.980Z,27.50
2017-08-25T07:38:15.169Z,17.23
2017-08-25T07:40:41.367Z,15.80
2017-08-25T07:43:07.613Z,17.50
2017-08-25T07:45:33.811Z,17.80
2017-08-25T07:48:00.008Z,26.00
2017-08-25T07:50:26.382Z,13.67
2017-08-25T07:52:52.575Z,12.20
2017-08-25T07:55:18.818Z,16.00
2017-08-25T07:57:45.075Z,14.47
2017-08-25T08:00:11.284Z,12.50
2017-08-25T08:02:37.463Z,11.47
2017-08-25T08:05:03.970Z,18.63
2017-08-25T08:07:30.156Z,16.17
2017-08-25T08:09:56.314Z,14.07
2017-08-25T08:12:22.526Z,10.67
2017-08-25T08:14:48.729Z,9.40
2017-08-25T08:17:14.969Z,9.87
2017-08-25T08:19:41.374Z,12.30
2017-08-25T08:22:07.492Z,8.87
2017-08-25T08:24:33.614Z,12.63
2017-08-25T08:26:59.780Z,14.37
2017-08-25T08:29:25.991Z,9.83
2017-08-25T08:31:53.000Z,8.33
2017-08-25T08:34:19.340Z,9.57
2017-08-25T08:36:45.495Z,10.30
2017-08-25T08:39:11.710Z,7.33
2017-08-25T08:41:37.907Z,11.33
2017-08-25T08:44:04.069Z,9.60
2017-08-25T08:46:30.261Z,11.43
2017-08-25T08:48:56.788Z,9.97
2017-08-25T08:51:23.034Z,11.43
2017-08-25T08:53:49.263Z,12.77
2017-08-25T08:56:15.420Z,9.90
2017-08-25T08:58:41.621Z,14.13
2017-08-25T09:01:13.974Z,12.23
2017-08-25T09:03:42.277Z,15.67
2017-08-25T09:06:16.423Z,12.20
2017-08-25T09:08:44.457Z,11.57
2017-08-25T09:11:10.638Z,16.10
2017-08-25T09:13:36.794Z,14.93
2017-08-25T09:16:03.007Z,28.83
2017-08-25T09:18:29.195Z,9.43
2017-08-25T09:20:55.472Z,11.77
2017-08-25T09:23:21.716Z,12.20
2017-08-25T09:25:47.893Z,11.50
2017-08-25T09:28:14.156Z,8.53
2017-08-25T09:30:40.386Z,8.60
2017-08-25T09:33:07.603Z,11.10
2017-08-25T09:35:33.806Z,13.73
2017-08-25T09:38:01.676Z,11.13
2017-08-25T09:40:28.459Z,9.30
2017-08-25T09:42:57.049Z,12.37
2017-08-25T09:45:23.283Z,13.20
2017-08-25T09:47:49.475Z,10.40
2017-08-25T09:50:15.671Z,12.20
2017-08-25T09:52:41.865Z,9.50
2017-08-25T09:55:09.121Z,15.00
2017-08-25T09:57:36.529Z,12.17
2017-08-25T10:00:03.176Z,12.33
2017-08-25T10:02:29.351Z,12.23
2017-08-25T10:04:55.858Z,14.20
2017-08-25T10:07:23.131Z,12.33
2017-08-25T10:09:49.394Z,10.93
2017-08-25T10:14:49.532Z,12.63
2017-08-25T10:17:15.662Z,15.77
2017-08-25T10:19:41.820Z,15.33
2017-08-25T10:22:08.007Z,11.07
2017-08-25T10:24:34.186Z,9.50
2017-08-25T10:27:01.065Z,12.07
2017-08-25T10:29:27.303Z,14.57
2017-08-25T10:31:53.479Z,10.10
2017-08-25T10:34:32.003Z,10.83
2017-08-25T10:37:10.898Z,17.00
2017-08-25T10:39:50.028Z,12.93
2017-08-25T10:42:28.499Z,14.67
2017-08-25T10:45:00.831Z,13.23
2017-08-25T10:47:27.679Z,15.93
2017-08-25T10:49:53.977Z,15.50
2017-08-25T10:52:20.980Z,13.37
2017-08-25T10:54:47.446Z,13.27
2017-08-25T10:57:13.648Z,17.33
2017-08-25T10:59:39.998Z,13.20
2017-08-25T11:02:06.241Z,12.77
2017-08-25T11:04:32.414Z,11.20
2017-08-25T11:06:58.693Z,11.87
2017-08-25T11:09:25.814Z,15.03
2017-08-25T11:11:52.033Z,10.13
2017-08-25T11:14:18.911Z,9.93
2017-08-25T11:16:46.326Z,13.70
2017-08-25T11:19:12.633Z,11.43
2017-08-25T11:21:38.930Z,9.73
2017-08-25T11:24:06.254Z,8.80
2017-08-25T11:26:32.445Z,7.93
2017-08-25T11:28:58.815Z,10.77
2017-08-25T11:31:25.038Z,7.03
2017-08-25T11:33:51.271Z,11.23
2017-08-25T11:36:17.571Z,8.07
2017-08-25T11:38:43.803Z,12.90
2017-08-25T11:41:10.037Z,8.70
2017-08-25T11:43:36.289Z,8.43
2017-08-25T11:46:02.481Z,6.70
2017-08-25T11:48:28.625Z,6.63
2017-08-25T11:50:55.198Z,10.07
2017-08-25T11:53:22.183Z,8.17
2017-08-25T11:55:48.330Z,5.40
2017-08-25T11:58:14.525Z,6.23
2017-08-25T12:00:40.702Z,6.87
2017-08-25T12:03:06.921Z,6.63
2017-08-25T12:05:33.113Z,7.77
2017-08-25T12:07:59.261Z,5.80
2017-08-25T12:10:25.384Z,11.77
2017-08-25T12:12:51.649Z,3.70
2017-08-25T12:15:17.883Z,4.67
2017-08-25T12:17:44.111Z,5.57
2017-08-25T12:20:10.384Z,9.17
2017-08-25T12:22:36.526Z,5.97
2017-08-25T12:25:03.137Z,6.07
2017-08-25T12:27:29.374Z,7.80
2017-08-25T12:29:56.140Z,5.77
2017-08-25T12:32:22.291Z,5.33
2017-08-25T12:34:48.610Z,5.47
2017-08-25T12:37:14.822Z,6.10
2017-08-25T12:39:40.968Z,6.33
2017-08-25T12:42:07.227Z,5.40
2017-08-25T12:44:34.117Z,6.67
2017-08-25T12:47:01.266Z,4.90
2017-08-25T12:49:27.544Z,7.73
2017-08-25T12:51:53.774Z,3.77
2017-08-25T12:54:19.980Z,3.17
2017-08-25T12:56:46.226Z,8.50
2017-08-25T12:59:12.459Z,7.50
2017-08-25T13:01:38.765Z,4.50
2017-08-25T13:04:05.012Z,5.87
2017-08-25T13:06:31.243Z,3.53
2017-08-25T13:08:57.451Z,10.07
2017-08-25T13:11:23.697Z,4.33
2017-08-25T13:13:50.493Z,4.33
2017-08-25T13:16:16.645Z,5.13
2017-08-25T13:18:42.944Z,3.53
2017-08-25T13:21:09.313Z,6.70
2017-08-25T13:23:35.615Z,3.73
2017-08-25T13:26:01.803Z,7.20
2017-08-25T13:28:27.993Z,4.43
2017-08-25T13:30:54.219Z,5.27
2017-08-25T13:33:20.482Z,5.10
2017-08-25T13:35:46.673Z,3.70
2017-08-25T13:38:12.896Z,5.93
2017-08-25T13:40:39.148Z,4.73
2017-08-25T13:43:05.454Z,5.63
2017-08-25T13:45:31.815Z,4.23
2017-08-25T13:47:58.158Z,3.43
2017-08-25T13:50:25.586Z,9.03
2017-08-25T13:52:52.906Z,4.63
2017-08-25T13:55:19.414Z,4.23
2017-08-25T13:57:45.674Z,4.87
2017-08-25T14:00:11.818Z,6.03
2017-08-25T14:02:38.090Z,5.50
2017-08-25T14:05:04.298Z,4.33
2017-08-25T14:07:30.559Z,3.70
2017-08-25T14:09:56.818Z,4.70
2017-08-25T14:12:23.040Z,3.00
2017-08-25T14:14:49.257Z,3.90
2017-08-25T14:17:15.672Z,2.97
2017-08-25T14:19:41.941Z,4.03
2017-08-25T14:22:08.080Z,4.83
2017-08-25T14:24:34.602Z,3.63
2017-08-25T14:27:00.803Z,7.80
2017-08-25T14:29:26.985Z,5.40
2017-08-25T14:31:53.214Z,4.60
2017-08-25T14:34:19.427Z,6.60
2017-08-25T14:36:45.633Z,8.57
2017-08-25T14:39:13.074Z,3.30
2017-08-25T14:41:39.333Z,5.27
2017-08-25T14:44:05.969Z,2.87
2017-08-25T14:46:32.408Z,3.50
2017-08-25T14:48:58.545Z,5.50
2017-08-25T14:51:25.252Z,4.10
2017-08-25T14:53:51.430Z,3.90
2017-08-25T14:56:17.667Z,2.97
2017-08-25T14:58:43.848Z,2.90
2017-08-25T15:01:10.315Z,4.83
2017-08-25T15:03:36.533Z,5.57
2017-08-25T15:06:02.757Z,3.33
2017-08-25T15:08:32.186Z,2.87
2017-08-25T15:10:59.498Z,3.70
2017-08-25T15:13:25.956Z,3.80
2017-08-25T15:15:52.180Z,5.37
2017-08-25T15:18:18.691Z,5.37
2017-08-25T15:20:44.878Z,4.07
2017-08-25T15:23:11.067Z,4.23
2017-08-25T15:25:37.395Z,4.50
2017-08-25T15:28:03.633Z,4.23
2017-08-25T15:30:29.862Z,3.03
2017-08-25T15:32:56.082Z,4.23
2017-08-25T15:35:22.720Z,3.40
2017-08-25T15:37:48.938Z,3.40
2017-08-25T15:40:15.150Z,5.63
2017-08-25T15:42:41.314Z,4.60
2017-08-25T15:45:07.432Z,4.63
2017-08-25T15:47:33.550Z,5.90
2017-08-25T15:49:59.793Z,4.10
2017-08-25T15:52:26.058Z,4.80
2017-08-25T15:54:52.234Z,4.97
2017-08-25T15:57:19.507Z,5.47
2017-08-25T15:59:45.703Z,13.33
2017-08-25T16:02:11.917Z,4.77
2017-08-25T16:04:38.156Z,5.50
2017-08-25T16:07:04.478Z,3.93
2017-08-25T16:09:30.902Z,4.87
2017-08-25T16:11:58.299Z,5.43
2017-08-25T16:14:24.806Z,4.80
2017-08-25T16:16:51.292Z,3.20
2017-08-25T16:19:17.643Z,3.20
2017-08-25T16:21:43.913Z,8.80
2017-08-25T16:24:10.168Z,16.53
2017-08-25T16:26:36.482Z,19.13
2017-08-25T16:29:02.762Z,25.00
2017-08-25T16:31:28.953Z,41.07
2017-08-25T16:33:55.219Z,31.17
2017-08-25T16:36:21.510Z,37.27
2017-08-25T16:38:47.793Z,29.10
2017-08-25T16:41:14.066Z,28.47
2017-08-25T16:43:40.323Z,13.13
2017-08-25T16:46:06.498Z,13.47
2017-08-25T16:48:33.028Z,7.20
2017-08-25T16:50:59.276Z,8.97
2017-08-25T16:53:26.123Z,5.20
2017-08-25T16:55:52.439Z,7.10
2017-08-25T16:58:18.608Z,9.50
2017-08-25T17:00:44.799Z,7.20
2017-08-25T17:03:11.274Z,9.57
2017-08-25T17:05:37.477Z,7.30
2017-08-25T17:08:03.687Z,9.10
2017-08-25T17:10:29.981Z,14.63
2017-08-25T17:12:56.227Z,16.03
2017-08-25T17:15:22.430Z,25.10
2017-08-25T17:17:55.541Z,21.97
2017-08-25T17:20:23.291Z,27.93
2017-08-25T17:22:49.595Z,11.40
2017-08-25T17:25:15.867Z,50.07
2017-08-25T17:27:42.132Z,24.57
2017-08-25T17:30:09.552Z,31.30
2017-08-25T17:32:35.940Z,49.13
2017-08-25T17:35:02.146Z,9.33
2017-08-25T17:37:28.447Z,11.30
2017-08-25T17:39:54.676Z,31.13
2017-08-25T17:42:20.987Z,19.20
2017-08-25T17:44:51.075Z,19.97
2017-08-25T17:47:17.471Z,23.40
2017-08-25T17:49:44.097Z,23.27
2017-08-25T17:52:10.405Z,14.23
2017-08-25T17:54:43.460Z,17.87
2017-08-25T17:57:09.701Z,19.70
2017-08-25T17:59:36.100Z,10.90
2017-08-25T18:02:02.365Z,8.67
2017-08-25T18:04:28.502Z,17.03
2017-08-25T18:06:54.782Z,33.53
2017-08-25T18:09:20.939Z,17.73
2017-08-25T18:11:48.349Z,8.07
2017-08-25T18:14:15.182Z,9.30
2017-08-25T18:16:41.488Z,13.03
2017-08-25T18:19:07.692Z,26.70
2017-08-25T18:21:33.992Z,21.80
2017-08-25T18:24:00.439Z,24.73
2017-08-25T18:26:26.595Z,17.10
2017-08-25T18:28:53.247Z,12.50
2017-08-25T18:31:20.706Z,19.20
2017-08-25T18:33:46.960Z,18.07
2017-08-25T18:36:14.266Z,20.13
2017-08-25T18:38:40.580Z,13.60
2017-08-25T18:41:08.041Z,16.50
2017-08-25T18:43:34.999Z,13.83
2017-08-25T18:46:02.135Z,24.03
2017-08-25T18:48:28.367Z,17.57
2017-08-25T18:50:54.609Z,23.23
2017-08-25T18:53:22.027Z,16.80
2017-08-25T18:55:48.262Z,24.67
2017-08-25T18:58:14.522Z,15.90
2017-08-25T19:00:41.322Z,17.97
2017-08-25T19:03:07.639Z,18.17
2017-08-25T19:05:34.784Z,16.73
2017-08-25T19:08:01.074Z,16.20
2017-08-25T19:10:27.431Z,21.10
2017-08-25T19:12:53.673Z,24.63
2017-08-25T19:15:20.098Z,20.87
2017-08-25T19:17:46.552Z,24.73
2017-08-25T19:20:12.880Z,21.40
2017-08-25T19:22:39.174Z,27.13
2017-08-25T19:25:05.494Z,31.17
2017-08-25T19:27:31.632Z,30.33
2017-08-25T19:29:59.075Z,29.77
2017-08-25T19:32:25.328Z,17.10
2017-08-25T19:34:51.560Z,31.87
2017-08-25T19:37:19.171Z,21.60
2017-08-25T19:39:46.760Z,22.53
2017-08-25T19:42:12.941Z,17.27
2017-08-25T19:44:40.466Z,19.60
2017-08-25T19:47:06.703Z,21.40
2017-08-25T19:49:36.136Z,25.10
2017-08-25T19:52:05.367Z,27.63
2017-08-25T19:54:32.360Z,20.70
2017-08-25T19:56:58.877Z,23.90
2017-08-25T19:59:25.325Z,22.93
2017-08-25T20:01:51.544Z,24.73
2017-08-25T20:04:18.421Z,18.57
2017-08-25T20:06:44.657Z,18.83
2017-08-25T20:09:10.894Z,22.20
2017-08-25T20:11:37.118Z,23.93
2017-08-25T20:14:03.365Z,18.20
2017-08-25T20:16:29.588Z,30.80
2017-08-25T20:18:55.775Z,45.10
2017-08-25T20:21:21.994Z,58.07
2017-08-25T20:23:48.193Z,32.23
2017-08-25T20:26:14.501Z,31.77
2017-08-25T20:28:40.740Z,33.17
2017-08-25T20:31:07.169Z,34.87
2017-08-25T20:33:33.649Z,29.00
2017-08-25T20:35:59.866Z,39.07
2017-08-25T20:38:26.209Z,33.30
2017-08-25T20:40:52.916Z,28.67
2017-08-25T20:43:19.062Z,26.90
2017-08-25T20:45:46.292Z,33.33
2017-08-25T20:48:13.777Z,33.17
2017-08-25T20:50:40.072Z,33.37
2017-08-25T20:53:06.258Z,36.03
2017-08-25T20:55:32.681Z,41.73
2017-08-25T20:57:58.899Z,34.70
2017-08-25T21:00:25.192Z,36.37
2017-08-25T21:02:51.445Z,34.87
2017-08-25T21:05:17.689Z,38.13
2017-08-25T21:07:43.963Z,35.20
2017-08-25T21:10:10.550Z,35.70
2017-08-25T21:12:36.898Z,36.33
2017-08-25T21:15:03.386Z,35.70
2017-08-25T21:17:29.611Z,41.50
2017-08-25T21:19:56.056Z,40.73
2017-08-25T21:22:23.170Z,42.33
2017-08-25T21:24:49.641Z,37.50
2017-08-25T21:27:16.985Z,39.13
2017-08-25T21:29:43.230Z,45.80
2017-08-25T21:32:09.698Z,48.57
2017-08-25T21:34:35.863Z,50.63
2017-08-25T21:37:02.051Z,56.57
2017-08-25T21:39:28.319Z,56.40
2017-08-25T21:41:54.772Z,53.50
2017-08-25T21:44:20.910Z,58.90
2017-08-25T21:46:47.376Z,59.47
2017-08-25T21:49:13.568Z,63.03
2017-08-25T21:51:39.779Z,55.43
2017-08-25T21:54:06.986Z,60.57
2017-08-25T21:56:33.329Z,53.73
2017-08-25T21:58:59.510Z,104.67
2017-08-25T22:01:25.933Z,92.03
2017-08-25T22:03:52.344Z,77.83
2017-08-25T22:06:19.203Z,59.90
2017-08-25T22:08:45.670Z,48.83
2017-08-25T22:11:11.945Z,50.13
2017-08-25T22:13:38.214Z,49.97
2017-08-25T22:16:04.495Z,52.70
2017-08-25T22:18:30.775Z,63.50
2017-08-25T22:20:58.210Z,59.97
2017-08-25T22:23:24.380Z,56.20
2017-08-25T22:25:50.974Z,59.97
2017-08-25T22:28:17.205Z,58.33
2017-08-25T22:30:43.479Z,56.43
2017-08-25T22:33:10.022Z,64.57
2017-08-25T22:35:36.289Z,53.13
2017-08-25T22:38:02.957Z,55.93
2017-08-25T22:43:27.926Z,105.23
2017-08-25T22:45:55.102Z,50.67
2017-08-25T22:48:21.407Z,53.57
2017-08-25T22:50:47.785Z,54.33
2017-08-25T22:53:14.029Z,54.57
2017-08-25T22:55:40.445Z,60.70
2017-08-25T22:58:07.834Z,52.10
2017-08-25T23:00:34.297Z,49.83
2017-08-25T23:03:00.699Z,50.07
2017-08-25T23:05:27.109Z,45.73
2017-08-25T23:07:53.369Z,52.67
2017-08-25T23:10:21.530Z,50.47
2017-08-25T23:12:47.845Z,45.20
2017-08-25T23:15:14.088Z,40.77
2017-08-25T23:17:41.389Z,45.73
2017-08-25T23:20:07.637Z,41.10
2017-08-25T23:22:33.746Z,39.00
2017-08-25T23:24:59.881Z,55.27
2017-08-25T23:27:26.182Z,46.10
2017-08-25T23:29:52.346Z,45.27
2017-08-25T23:32:18.643Z,37.93
2017-08-25T23:34:45.015Z,66.03
2017-08-25T23:37:11.335Z,45.43
2017-08-25T23:39:37.485Z,39.00
2017-08-25T23:42:03.723Z,47.40
2017-08-25T23:44:29.910Z,51.10
2017-08-25T23:46:57.754Z,41.60
2017-08-25T23:49:24.106Z,66.00
2017-08-25T23:51:51.719Z,55.30
2017-08-25T23:54:19.377Z,46.50
2017-08-25T23:56:46.410Z,42.20
2017-08-25T23:59:13.437Z,53.63
